createdAt,value
2023-03-20T00:00:16.793Z,47.60
2023-03-20T00:02:43.397Z,47.80
2023-03-20T00:05:15.449Z,50.47
2023-03-20T00:07:42.340Z,43.63
2023-03-20T00:10:09.322Z,49.23
2023-03-20T00:12:35.921Z,46.33
2023-03-20T00:15:04.266Z,49.83
2023-03-20T00:17:30.824Z,52.80
2023-03-20T00:19:57.456Z,51.90
2023-03-20T00:22:24.174Z,44.50
2023-03-20T00:24:50.687Z,53.73
2023-03-20T00:27:17.670Z,41.77
2023-03-20T00:29:44.561Z,49.30
2023-03-20T00:32:12.248Z,51.13
2023-03-20T00:34:39.168Z,51.80
2023-03-20T00:37:05.697Z,44.40
2023-03-20T00:39:32.323Z,48.63
2023-03-20T00:42:03.710Z,43.27
2023-03-20T00:44:30.598Z,48.23
2023-03-20T00:46:58.878Z,47.33
2023-03-20T00:49:28.191Z,49.10
2023-03-20T00:51:55.250Z,49.80
2023-03-20T00:54:22.091Z,51.97
2023-03-20T00:56:59.721Z,53.33
2023-03-20T00:59:31.768Z,41.07
2023-03-20T01:01:58.990Z,47.37
2023-03-20T01:04:28.161Z,49.10
2023-03-20T01:06:54.623Z,53.63
2023-03-20T01:09:21.158Z,48.50
2023-03-20T01:11:47.714Z,50.90
2023-03-20T01:14:15.674Z,51.63
2023-03-20T01:16:42.233Z,52.57
2023-03-20T01:19:14.133Z,38.90
2023-03-20T01:21:41.259Z,44.20
2023-03-20T01:24:08.182Z,35.80
2023-03-20T01:26:39.212Z,36.80
2023-03-20T01:29:27.666Z,39.30
2023-03-20T01:31:54.568Z,41.90
2023-03-20T01:34:23.509Z,34.80
2023-03-20T01:36:51.412Z,38.40
2023-03-20T01:39:19.302Z,40.33
2023-03-20T01:41:47.102Z,40.63
2023-03-20T01:44:24.673Z,36.70
2023-03-20T01:46:56.551Z,39.27
2023-03-20T01:49:23.257Z,43.37
2023-03-20T01:51:51.749Z,39.47
2023-03-20T01:54:25.122Z,28.17
2023-03-20T01:57:07.564Z,29.53
2023-03-20T01:59:54.584Z,36.83
2023-03-20T02:02:23.542Z,32.10
2023-03-20T02:04:52.214Z,30.90
2023-03-20T02:07:21.294Z,31.00
2023-03-20T02:10:04.234Z,30.53
2023-03-20T02:12:49.652Z,40.63
2023-03-20T02:15:26.543Z,33.60
2023-03-20T02:18:13.937Z,39.17
2023-03-20T02:21:04.918Z,33.07
2023-03-20T02:23:50.348Z,33.70
2023-03-20T02:26:35.164Z,35.43
2023-03-20T02:29:22.564Z,29.63
2023-03-20T02:32:06.443Z,36.60
2023-03-20T02:34:35.836Z,33.83
2023-03-20T02:37:21.343Z,36.23
2023-03-20T02:40:01.535Z,38.93
2023-03-20T02:42:47.200Z,48.50
2023-03-20T02:45:19.354Z,31.97
2023-03-20T02:48:14.423Z,37.87
2023-03-20T02:50:49.326Z,32.40
2023-03-20T02:53:34.768Z,38.77
2023-03-20T02:56:01.805Z,36.20
2023-03-20T02:58:36.702Z,35.80
2023-03-20T03:01:09.280Z,40.47
2023-03-20T03:03:57.080Z,39.07
2023-03-20T03:06:29.899Z,41.70
2023-03-20T03:09:00.443Z,43.67
2023-03-20T03:11:27.059Z,46.60
2023-03-20T03:13:55.436Z,41.27
2023-03-20T03:16:30.331Z,52.97
2023-03-20T03:19:18.275Z,51.33
2023-03-20T03:21:47.192Z,52.20
2023-03-20T03:24:39.962Z,55.40
2023-03-20T03:27:18.120Z,59.60
2023-03-20T03:29:45.995Z,60.37
2023-03-20T03:32:25.170Z,47.37
2023-03-20T03:34:52.156Z,59.63
2023-03-20T03:37:32.671Z,51.00
2023-03-20T03:40:19.551Z,59.97
2023-03-20T03:42:57.869Z,52.20
2023-03-20T03:45:36.660Z,59.10
2023-03-20T03:48:08.994Z,57.77
2023-03-20T03:50:48.034Z,56.60
2023-03-20T03:53:17.457Z,51.50
2023-03-20T03:55:47.856Z,55.73
2023-03-20T03:58:21.508Z,63.57
2023-03-20T04:00:50.726Z,51.23
2023-03-20T04:03:18.990Z,56.07
2023-03-20T04:05:46.212Z,57.33
2023-03-20T04:08:14.449Z,53.27
2023-03-20T04:10:41.415Z,53.07
2023-03-20T04:13:08.854Z,58.10
2023-03-20T04:15:35.910Z,59.40
2023-03-20T04:18:03.574Z,52.73
2023-03-20T04:20:30.632Z,52.43
2023-03-20T04:22:57.175Z,54.40
2023-03-20T04:25:25.139Z,50.30
2023-03-20T04:27:53.944Z,58.50
2023-03-20T04:30:31.841Z,47.00
2023-03-20T04:33:17.489Z,56.50
2023-03-20T04:36:00.904Z,59.63
2023-03-20T04:38:27.606Z,72.13
2023-03-20T04:40:55.054Z,69.73
2023-03-20T04:43:21.615Z,62.83
2023-03-20T04:45:48.267Z,74.03
2023-03-20T04:48:14.883Z,70.80
2023-03-20T04:50:41.419Z,65.40
2023-03-20T04:53:08.352Z,59.70
2023-03-20T04:55:35.523Z,56.50
2023-03-20T04:58:02.280Z,58.93
2023-03-20T05:00:30.214Z,50.80
2023-03-20T05:02:56.722Z,58.50
2023-03-20T05:05:23.777Z,47.30
2023-03-20T05:07:51.706Z,44.13
2023-03-20T05:10:31.857Z,42.97
2023-03-20T05:13:04.169Z,46.23
2023-03-20T05:15:49.495Z,47.93
2023-03-20T05:18:35.385Z,40.20
2023-03-20T05:21:16.939Z,51.07
2023-03-20T05:24:08.112Z,44.93
2023-03-20T05:27:02.682Z,46.53
2023-03-20T05:29:42.318Z,36.43
2023-03-20T05:32:18.584Z,35.30
2023-03-20T05:34:55.378Z,39.60
2023-03-20T05:37:31.017Z,39.93
2023-03-20T05:40:00.358Z,38.23
2023-03-20T05:43:02.046Z,38.53
2023-03-20T05:45:57.687Z,40.87
2023-03-20T05:48:37.109Z,30.90
2023-03-20T05:51:30.161Z,48.63
2023-03-20T05:54:06.830Z,45.43
2023-03-20T05:56:51.900Z,32.70
2023-03-20T05:59:28.665Z,33.43
2023-03-20T06:02:21.416Z,35.57
2023-03-20T06:04:57.526Z,35.67
2023-03-20T06:07:27.765Z,32.27
2023-03-20T06:10:00.101Z,32.17
2023-03-20T06:12:27.624Z,31.20
2023-03-20T06:14:54.436Z,46.30
2023-03-20T06:17:21.460Z,34.30
2023-03-20T06:19:52.762Z,35.50
2023-03-20T06:22:19.336Z,38.83
2023-03-20T06:24:46.375Z,33.70
2023-03-20T06:27:12.952Z,29.53
2023-03-20T06:29:39.841Z,37.33
2023-03-20T06:32:17.344Z,27.43
2023-03-20T06:34:45.493Z,34.67
2023-03-20T06:37:12.023Z,30.00
2023-03-20T06:39:38.731Z,32.17
2023-03-20T06:42:09.743Z,25.93
2023-03-20T06:44:37.291Z,27.33
2023-03-20T06:47:10.979Z,24.30
2023-03-20T06:49:37.679Z,24.03
2023-03-20T06:52:05.254Z,30.40
2023-03-20T06:54:32.571Z,25.43
2023-03-20T06:56:59.114Z,29.00
2023-03-20T06:59:27.051Z,26.50
2023-03-20T07:01:57.128Z,23.17
2023-03-20T07:04:24.225Z,17.20
2023-03-20T07:06:53.998Z,22.63
2023-03-20T07:09:22.351Z,27.77
2023-03-20T07:11:48.890Z,21.37
2023-03-20T07:14:15.881Z,22.67
2023-03-20T07:16:48.233Z,24.80
2023-03-20T07:19:15.117Z,23.33
2023-03-20T07:21:44.143Z,24.23
2023-03-20T07:24:15.438Z,25.23
2023-03-20T07:26:41.981Z,22.13
2023-03-20T07:29:09.304Z,21.93
2023-03-20T07:31:37.136Z,24.67
2023-03-20T07:34:11.009Z,22.73
2023-03-20T07:36:37.680Z,28.80
2023-03-20T07:39:04.781Z,19.10
2023-03-20T07:41:32.625Z,28.97
2023-03-20T07:44:04.749Z,23.33
2023-03-20T07:46:54.720Z,28.63
2023-03-20T07:49:23.369Z,24.37
2023-03-20T07:51:50.872Z,23.03
2023-03-20T07:54:17.451Z,19.67
2023-03-20T07:56:43.934Z,24.67
2023-03-20T07:59:10.533Z,20.57
2023-03-20T08:01:36.964Z,22.50
2023-03-20T08:04:03.560Z,24.00
2023-03-20T08:06:30.331Z,28.60
2023-03-20T08:08:57.146Z,19.50
2023-03-20T08:11:23.926Z,22.47
2023-03-20T08:13:50.602Z,22.80
2023-03-20T08:16:17.578Z,27.37
2023-03-20T08:18:44.280Z,28.17
2023-03-20T08:21:11.193Z,30.13
2023-03-20T08:23:38.102Z,33.17
2023-03-20T08:26:04.984Z,26.83
2023-03-20T08:28:46.571Z,20.60
2023-03-20T08:31:15.049Z,17.63
2023-03-20T08:33:41.910Z,17.40
2023-03-20T08:36:09.027Z,19.73
2023-03-20T08:38:36.054Z,10.80
2023-03-20T08:41:03.249Z,17.97
2023-03-20T08:43:30.121Z,24.10
2023-03-20T08:45:57.254Z,23.30
2023-03-20T08:48:24.086Z,19.37
2023-03-20T08:50:51.270Z,16.33
2023-03-20T08:53:18.353Z,20.00
2023-03-20T08:55:49.634Z,18.67
2023-03-20T08:58:16.694Z,21.03
2023-03-20T09:00:43.584Z,13.00
2023-03-20T09:03:17.724Z,14.27
2023-03-20T09:05:44.911Z,19.57
2023-03-20T09:08:11.960Z,19.97
2023-03-20T09:10:38.598Z,17.03
2023-03-20T09:13:23.430Z,19.70
2023-03-20T09:15:52.571Z,14.13
2023-03-20T09:18:20.246Z,14.40
2023-03-20T09:20:47.661Z,14.70
2023-03-20T09:23:14.318Z,25.53
2023-03-20T09:25:40.976Z,11.00
2023-03-20T09:28:07.615Z,16.03
2023-03-20T09:30:34.742Z,12.87
2023-03-20T09:33:01.529Z,19.47
2023-03-20T09:35:28.253Z,10.87
2023-03-20T09:37:54.933Z,17.50
2023-03-20T09:40:27.381Z,22.83
2023-03-20T09:43:13.642Z,13.53
2023-03-20T09:45:55.117Z,17.67
2023-03-20T09:48:33.140Z,21.90
2023-03-20T09:51:02.662Z,17.17
2023-03-20T09:53:38.089Z,17.40
2023-03-20T09:56:06.417Z,17.43
2023-03-20T09:58:34.162Z,12.33
2023-03-20T10:01:02.716Z,18.50
2023-03-20T10:03:32.248Z,10.40
2023-03-20T10:06:05.027Z,11.83
2023-03-20T10:08:36.616Z,18.13
2023-03-20T10:11:26.885Z,12.13
2023-03-20T10:14:05.831Z,23.07
2023-03-20T10:16:35.534Z,22.50
2023-03-20T10:19:08.010Z,14.30
2023-03-20T10:21:45.338Z,11.37
2023-03-20T10:24:26.335Z,19.90
2023-03-20T10:26:54.073Z,12.77
2023-03-20T10:29:26.460Z,10.03
2023-03-20T10:31:59.828Z,7.37
2023-03-20T10:34:32.433Z,14.97
2023-03-20T10:37:11.585Z,15.97
2023-03-20T10:39:56.939Z,13.43
2023-03-20T10:42:26.684Z,12.97
2023-03-20T10:44:58.796Z,12.40
2023-03-20T10:47:28.603Z,11.87
2023-03-20T10:50:01.277Z,10.30
2023-03-20T10:52:29.307Z,13.00
2023-03-20T10:55:14.677Z,14.40
2023-03-20T10:57:46.385Z,12.07
2023-03-20T11:00:16.430Z,15.03
2023-03-20T11:02:42.960Z,10.60
2023-03-20T11:05:39.080Z,8.53
2023-03-20T11:08:07.566Z,9.17
2023-03-20T11:10:35.413Z,7.67
2023-03-20T11:13:22.206Z,16.20
2023-03-20T11:15:48.786Z,13.13
2023-03-20T11:18:15.767Z,11.40
2023-03-20T11:20:54.009Z,11.00
2023-03-20T11:23:24.764Z,13.10
2023-03-20T11:25:57.560Z,9.73
2023-03-20T11:28:32.133Z,13.60
2023-03-20T11:31:06.795Z,12.40
2023-03-20T11:33:37.906Z,8.73
2023-03-20T11:36:10.944Z,11.77
2023-03-20T11:38:43.239Z,12.53
2023-03-20T11:41:23.405Z,19.00
2023-03-20T11:43:50.371Z,13.77
2023-03-20T11:46:17.214Z,4.73
2023-03-20T11:48:45.721Z,6.93
2023-03-20T11:51:15.693Z,13.67
2023-03-20T11:53:48.435Z,8.03
2023-03-20T11:56:20.891Z,5.33
2023-03-20T11:58:58.846Z,11.30
2023-03-20T12:01:27.334Z,4.60
2023-03-20T12:04:14.006Z,3.20
2023-03-20T12:06:46.712Z,9.37
2023-03-20T12:09:16.555Z,8.63
2023-03-20T12:11:50.878Z,4.70
2023-03-20T12:14:30.348Z,4.53
2023-03-20T12:17:04.348Z,2.73
2023-03-20T12:19:31.959Z,6.90
2023-03-20T12:22:07.480Z,7.20
2023-03-20T12:24:38.671Z,6.00
2023-03-20T12:27:11.600Z,5.87
2023-03-20T12:29:50.118Z,12.50
2023-03-20T12:32:40.389Z,18.73
2023-03-20T12:35:16.039Z,11.27
2023-03-20T12:37:43.282Z,10.40
2023-03-20T12:40:13.013Z,28.70
2023-03-20T12:42:49.156Z,5.93
2023-03-20T12:45:23.563Z,13.33
2023-03-20T12:48:08.967Z,14.30
2023-03-20T12:50:42.887Z,12.37
2023-03-20T12:53:12.454Z,25.73
2023-03-20T12:55:39.068Z,7.60
2023-03-20T12:58:11.807Z,6.20
2023-03-20T13:00:45.191Z,9.77
2023-03-20T13:03:11.952Z,12.33
2023-03-20T13:05:41.805Z,18.03
2023-03-20T13:08:29.628Z,16.63
2023-03-20T13:10:59.227Z,10.10
2023-03-20T13:13:47.052Z,9.70
2023-03-20T13:16:32.741Z,10.07
2023-03-20T13:19:16.893Z,17.73
2023-03-20T13:21:48.285Z,5.97
2023-03-20T13:24:17.902Z,21.20
2023-03-20T13:27:08.176Z,9.90
2023-03-20T13:29:37.965Z,7.00
2023-03-20T13:32:13.910Z,10.13
2023-03-20T13:35:00.707Z,6.40
2023-03-20T13:37:36.117Z,20.83
2023-03-20T13:40:15.062Z,16.03
2023-03-20T13:43:04.721Z,11.23
2023-03-20T13:45:35.116Z,12.47
2023-03-20T13:48:26.438Z,6.20
2023-03-20T13:51:02.254Z,7.23
2023-03-20T13:53:33.029Z,17.37
2023-03-20T13:56:07.675Z,11.77
2023-03-20T13:58:45.553Z,9.23
2023-03-20T14:01:35.456Z,8.80
2023-03-20T14:04:02.589Z,6.67
2023-03-20T14:06:29.542Z,13.93
2023-03-20T14:08:56.383Z,10.20
2023-03-20T14:11:42.780Z,11.00
2023-03-20T14:14:14.559Z,17.17
2023-03-20T14:16:41.789Z,11.50
2023-03-20T14:19:17.729Z,13.90
2023-03-20T14:21:48.449Z,14.03
2023-03-20T14:24:17.208Z,12.43
2023-03-20T14:26:48.228Z,10.97
2023-03-20T14:29:14.961Z,12.73
2023-03-20T14:31:45.243Z,5.70
2023-03-20T14:34:11.784Z,8.53
2023-03-20T14:36:46.356Z,5.73
2023-03-20T14:39:22.735Z,9.47
2023-03-20T14:42:08.139Z,11.33
2023-03-20T14:44:53.569Z,12.97
2023-03-20T14:47:26.688Z,19.27
2023-03-20T14:50:12.840Z,15.30
2023-03-20T14:52:58.456Z,6.33
2023-03-20T14:55:25.117Z,5.17
2023-03-20T14:57:56.886Z,8.10
2023-03-20T15:00:28.367Z,12.30
2023-03-20T15:03:15.442Z,10.77
2023-03-20T15:05:42.435Z,3.83
2023-03-20T15:08:18.835Z,14.60
2023-03-20T15:10:47.118Z,12.63
2023-03-20T15:13:14.553Z,16.40
2023-03-20T15:15:51.597Z,14.87
2023-03-20T15:18:20.491Z,8.30
2023-03-20T15:20:47.114Z,14.17
2023-03-20T15:23:13.614Z,9.10
2023-03-20T15:25:44.402Z,6.00
2023-03-20T15:28:31.264Z,11.53
2023-03-20T15:30:58.732Z,5.40
2023-03-20T15:33:29.434Z,6.37
2023-03-20T15:35:56.222Z,5.37
2023-03-20T15:38:26.393Z,20.03
2023-03-20T15:40:53.984Z,14.20
2023-03-20T15:43:25.675Z,5.23
2023-03-20T15:46:02.801Z,5.90
2023-03-20T15:48:36.891Z,6.27
2023-03-20T15:51:05.000Z,9.13
2023-03-20T15:53:36.013Z,10.47
2023-03-20T15:56:17.636Z,11.43
2023-03-20T15:58:45.482Z,19.07
2023-03-20T16:01:16.177Z,9.77
2023-03-20T16:03:42.934Z,20.57
2023-03-20T16:06:11.379Z,19.07
2023-03-20T16:08:39.229Z,11.83
2023-03-20T16:11:07.742Z,3.47
2023-03-20T16:13:39.105Z,12.63
2023-03-20T16:16:07.817Z,12.30
2023-03-20T16:18:37.532Z,9.37
2023-03-20T16:21:06.936Z,8.70
2023-03-20T16:23:35.613Z,17.77
2023-03-20T16:26:04.787Z,7.67
2023-03-20T16:28:31.570Z,11.83
2023-03-20T16:31:09.415Z,6.53
2023-03-20T16:33:37.318Z,15.57
2023-03-20T16:36:04.250Z,13.03
2023-03-20T16:38:36.338Z,10.83
2023-03-20T16:41:16.979Z,16.87
2023-03-20T16:43:46.260Z,8.13
2023-03-20T16:46:17.288Z,11.27
2023-03-20T16:48:44.020Z,14.80
2023-03-20T16:51:15.709Z,10.93
2023-03-20T16:53:45.421Z,8.00
2023-03-20T16:56:14.468Z,11.03
2023-03-20T16:58:41.312Z,15.37
2023-03-20T17:01:14.851Z,17.13
2023-03-20T17:03:48.141Z,11.60
2023-03-20T17:06:21.681Z,13.60
2023-03-20T17:08:53.080Z,12.33
2023-03-20T17:11:32.950Z,11.63
2023-03-20T17:13:59.753Z,11.23
2023-03-20T17:16:27.098Z,9.67
2023-03-20T17:19:05.629Z,15.30
2023-03-20T17:21:32.275Z,9.00
2023-03-20T17:23:59.506Z,9.30
2023-03-20T17:26:26.350Z,13.33
2023-03-20T17:28:53.148Z,16.57
2023-03-20T17:31:19.887Z,10.70
2023-03-20T17:33:46.887Z,5.80
2023-03-20T17:36:19.535Z,17.43
2023-03-20T17:38:46.710Z,14.20
2023-03-20T17:41:17.813Z,22.60
2023-03-20T17:43:45.121Z,9.37
2023-03-20T17:46:36.065Z,13.70
2023-03-20T17:49:14.096Z,13.13
2023-03-20T17:51:41.042Z,18.80
2023-03-20T17:54:07.679Z,15.57
2023-03-20T17:56:34.358Z,16.67
2023-03-20T17:59:02.096Z,8.50
2023-03-20T18:01:32.160Z,24.83
2023-03-20T18:03:59.271Z,26.27
2023-03-20T18:06:27.119Z,12.90
2023-03-20T18:08:54.769Z,24.00
2023-03-20T18:11:21.757Z,10.20
2023-03-20T18:13:48.367Z,11.73
2023-03-20T18:16:17.150Z,13.47
2023-03-20T18:18:44.045Z,13.97
2023-03-20T18:21:14.329Z,14.93
2023-03-20T18:23:41.185Z,12.90
2023-03-20T18:26:24.579Z,32.27
2023-03-20T18:28:52.122Z,17.70
2023-03-20T18:31:21.717Z,11.73
2023-03-20T18:33:52.612Z,13.77
2023-03-20T18:36:20.998Z,14.40
2023-03-20T18:38:48.169Z,14.53
2023-03-20T18:41:14.817Z,15.47
2023-03-20T18:43:41.427Z,16.53
2023-03-20T18:46:13.269Z,11.83
2023-03-20T18:48:40.082Z,12.30
2023-03-20T18:51:06.719Z,19.63
2023-03-20T18:53:33.705Z,14.83
2023-03-20T18:56:00.793Z,17.70
2023-03-20T18:58:28.434Z,17.80
2023-03-20T19:00:57.324Z,10.13
2023-03-20T19:03:24.538Z,18.73
2023-03-20T19:05:51.944Z,15.10
2023-03-20T19:08:18.600Z,16.87
2023-03-20T19:10:46.106Z,6.37
2023-03-20T19:13:14.528Z,15.77
2023-03-20T19:15:41.527Z,16.20
2023-03-20T19:18:12.269Z,14.03
2023-03-20T19:20:39.954Z,14.67
2023-03-20T19:23:07.767Z,11.63
2023-03-20T19:25:34.772Z,16.33
2023-03-20T19:28:02.278Z,9.97
2023-03-20T19:30:36.706Z,16.70
2023-03-20T19:33:04.083Z,11.57
2023-03-20T19:35:54.509Z,15.70
2023-03-20T19:38:18.961Z,14.93
2023-03-20T19:40:46.563Z,7.63
2023-03-20T19:43:13.488Z,16.80
2023-03-20T19:45:41.291Z,12.67
2023-03-20T19:48:49.680Z,11.47
2023-03-20T19:51:18.634Z,8.70
2023-03-20T19:53:46.060Z,7.93
2023-03-20T19:56:13.694Z,20.97
2023-03-20T19:58:40.904Z,24.77
2023-03-20T20:01:14.757Z,19.20
2023-03-20T20:03:42.508Z,10.00
2023-03-20T20:06:09.085Z,15.20
2023-03-20T20:08:47.839Z,13.73
2023-03-20T20:11:15.691Z,10.97
2023-03-20T20:14:03.851Z,20.93
2023-03-20T20:16:29.432Z,17.07
2023-03-20T20:18:56.050Z,13.10
2023-03-20T20:24:09.305Z,11.13
2023-03-20T20:26:44.887Z,12.77
2023-03-20T20:29:15.939Z,15.10
2023-03-20T20:31:43.817Z,20.10
2023-03-20T20:39:45.367Z,17.83
2023-03-20T20:42:12.557Z,12.43
2023-03-20T20:44:39.521Z,19.73
2023-03-20T20:47:06.270Z,18.43
2023-03-20T20:49:32.996Z,23.77
2023-03-20T20:51:59.581Z,20.90
2023-03-20T20:54:27.176Z,20.83
2023-03-20T20:56:54.888Z,13.30
2023-03-20T20:59:22.019Z,24.70
2023-03-20T21:01:49.639Z,17.53
2023-03-20T21:04:16.667Z,27.97
2023-03-20T21:07:08.176Z,13.90
2023-03-20T21:09:30.023Z,12.80
2023-03-20T21:11:56.621Z,23.40
2023-03-20T21:14:23.246Z,19.07
2023-03-20T21:16:49.818Z,27.90
2023-03-20T21:19:16.390Z,18.40
2023-03-20T21:21:42.925Z,17.93
2023-03-20T21:24:30.483Z,14.50
2023-03-20T21:26:58.481Z,29.77
2023-03-20T21:29:25.658Z,24.40
2023-03-20T21:31:52.302Z,26.67
2023-03-20T21:34:19.388Z,18.17
2023-03-20T21:36:48.937Z,14.80
2023-03-20T21:39:16.578Z,9.43
2023-03-20T21:41:43.364Z,22.53
2023-03-20T21:44:16.710Z,16.27
2023-03-20T21:47:22.805Z,12.10
2023-03-20T21:50:23.520Z,15.67
2023-03-20T21:53:00.346Z,26.30
2023-03-20T21:56:00.038Z,15.53
2023-03-20T22:03:51.996Z,18.93
2023-03-20T22:07:13.140Z,17.90
2023-03-20T22:23:54.789Z,17.10
2023-03-20T22:26:39.430Z,22.20
2023-03-20T22:29:24.576Z,21.67
2023-03-20T22:32:02.353Z,26.17
2023-03-20T22:34:46.532Z,22.73
2023-03-20T22:42:57.351Z,20.33
2023-03-20T22:45:23.492Z,31.03
2023-03-20T22:47:50.416Z,20.83
2023-03-20T22:50:17.112Z,23.53
2023-03-20T22:52:49.108Z,28.20
2023-03-20T22:55:17.148Z,12.80
2023-03-20T22:57:56.136Z,19.20
2023-03-20T23:00:30.750Z,19.80
2023-03-20T23:03:11.252Z,14.20
2023-03-20T23:05:42.413Z,33.77
2023-03-20T23:08:10.827Z,24.93
2023-03-20T23:10:38.149Z,17.60
2023-03-20T23:13:04.902Z,23.43
2023-03-20T23:15:31.414Z,16.30
2023-03-20T23:17:57.985Z,16.93
2023-03-20T23:20:24.946Z,26.20
2023-03-20T23:22:51.481Z,28.80
2023-03-20T23:25:30.997Z,18.87
2023-03-20T23:28:04.902Z,21.70
2023-03-20T23:30:41.971Z,19.17
2023-03-20T23:33:11.008Z,28.83
2023-03-20T23:35:37.674Z,20.97
2023-03-20T23:38:04.426Z,23.50
2023-03-20T23:40:30.962Z,17.47
2023-03-20T23:42:58.915Z,26.93
2023-03-20T23:45:25.432Z,28.43
2023-03-20T23:47:51.940Z,28.97
2023-03-20T23:50:27.663Z,28.97
2023-03-20T23:53:09.818Z,26.93
2023-03-20T23:55:41.466Z,26.33
2023-03-20T23:58:08.943Z,25.67
